Time;durP1;ratioP1;P1;durP2;ratioP2;P2;SDS_P1;SDS_P2;PMS_P1;PMS_P2;Temp;Humidity;BMP_temperature;BMP_pressure;BME280_temperature;BME280_humidity;BME280_pressure;Samples;Min_cycle;Max_cycle;Signal;HPM_P1;HPM_P2
2022/02/25 00:01:49;;;;;;;8.03;5.67;;;0.80;81.90;;;;;;4992364;28;20215;-76
2022/02/25 00:04:15;;;;;;;5.07;4.13;;;0.80;81.50;;;;;;4992616;28;20184;-75
2022/02/25 00:06:40;;;;;;;7.77;3.23;;;0.80;81.60;;;;;;4997526;28;20687;-75
2022/02/25 00:09:07;;;;;;;8.07;3.90;;;0.80;81.70;;;;;;4996716;28;20249;-76
2022/02/25 00:11:33;;;;;;;7.00;4.00;;;0.80;81.70;;;;;;4992853;28;21954;-76
2022/02/25 00:13:59;;;;;;;5.57;3.97;;;0.70;81.70;;;;;;4993475;28;20630;-76
2022/02/25 00:16:25;;;;;;;5.57;4.77;;;0.80;81.80;;;;;;4997406;28;20196;-76
2022/02/25 00:18:51;;;;;;;7.33;4.47;;;0.70;82.60;;;;;;4995766;28;20590;-76
2022/02/25 00:21:16;;;;;;;8.37;4.83;;;0.70;82.70;;;;;;4997409;28;20257;-76
2022/02/25 00:23:42;;;;;;;6.03;4.30;;;0.70;83.00;;;;;;4996584;28;21010;-76
2022/02/25 00:26:09;;;;;;;6.87;5.23;;;0.60;83.20;;;;;;4997130;28;20181;-77
2022/02/25 00:28:34;;;;;;;8.53;4.90;;;0.60;83.30;;;;;;5003279;28;20178;-77
2022/02/25 00:31:01;;;;;;;10.23;4.93;;;0.60;83.30;;;;;;5000187;28;20220;-76
2022/02/25 00:33:27;;;;;;;6.67;4.20;;;0.60;83.30;;;;;;5004154;28;20706;-77
2022/02/25 00:35:53;;;;;;;8.73;5.90;;;0.60;83.30;;;;;;4995652;28;20182;-76
2022/02/25 00:38:20;;;;;;;4.83;4.43;;;0.50;83.40;;;;;;4999614;28;20189;-77
2022/02/25 00:40:46;;;;;;;8.27;5.03;;;0.50;83.50;;;;;;5000031;28;20288;-77
2022/02/25 00:43:12;;;;;;;7.83;4.40;;;0.50;83.50;;;;;;4994988;28;20456;-77
2022/02/25 00:45:38;;;;;;;11.00;4.77;;;0.40;83.40;;;;;;4996428;28;20185;-76
2022/02/25 00:48:04;;;;;;;8.17;5.67;;;0.40;83.50;;;;;;4995398;28;20188;-77
2022/02/25 00:50:30;;;;;;;4.47;4.07;;;0.40;83.50;;;;;;4998593;28;20193;-77
2022/02/25 00:52:56;;;;;;;4.77;4.00;;;0.40;83.50;;;;;;4995693;28;20209;-77
2022/02/25 00:55:22;;;;;;;6.13;4.67;;;0.40;83.30;;;;;;4997208;28;20255;-76
2022/02/25 00:57:51;;;;;;;8.43;4.40;;;0.40;83.40;;;;;;4994647;28;20218;-76
2022/02/25 01:00:20;;;;;;;6.77;4.30;;;0.40;83.60;;;;;;5013824;28;20184;-76
2022/02/25 01:02:47;;;;;;;6.87;3.80;;;0.30;83.70;;;;;;4998267;28;20214;-77
2022/02/25 01:05:13;;;;;;;7.03;4.13;;;0.40;83.60;;;;;;4997756;28;20292;-76
2022/02/25 01:07:40;;;;;;;4.17;3.80;;;0.40;83.50;;;;;;4995803;28;20936;-76
2022/02/25 01:10:07;;;;;;;3.40;3.10;;;0.40;83.50;;;;;;4996572;28;20185;-76
2022/02/25 01:12:33;;;;;;;3.70;3.43;;;0.40;83.40;;;;;;4993247;28;20231;-77
2022/02/25 01:15:00;;;;;;;7.90;3.97;;;0.40;83.50;;;;;;4997612;28;20185;-77
2022/02/25 01:17:29;;;;;;;7.37;4.90;;;0.40;83.50;;;;;;4988160;28;20186;-76
2022/02/25 01:19:58;;;;;;;5.07;4.57;;;0.30;83.50;;;;;;4997267;28;20192;-77
2022/02/25 01:22:25;;;;;;;4.27;3.53;;;0.30;83.50;;;;;;4995343;28;20239;-77
2022/02/25 01:24:51;;;;;;;6.30;4.30;;;0.30;83.40;;;;;;4999337;28;21042;-77
2022/02/25 01:27:17;;;;;;;4.63;3.87;;;0.30;83.50;;;;;;4995904;28;20193;-77
2022/02/25 01:29:42;;;;;;;6.80;4.83;;;0.30;83.60;;;;;;4991678;28;20182;-77
2022/02/25 01:32:09;;;;;;;10.43;5.00;;;0.20;83.80;;;;;;4999445;28;20223;-77
2022/02/25 01:34:34;;;;;;;7.03;5.63;;;0.20;83.80;;;;;;4992249;28;20213;-77
2022/02/25 01:37:00;;;;;;;6.00;4.40;;;0.20;83.90;;;;;;4995972;28;20659;-76
2022/02/25 01:39:26;;;;;;;9.87;5.90;;;0.20;83.90;;;;;;4993197;28;20743;-76
2022/02/25 01:41:51;;;;;;;8.33;5.37;;;0.20;84.00;;;;;;4996712;28;20182;-76
2022/02/25 01:44:20;;;;;;;9.27;5.00;;;0.10;83.90;;;;;;4995125;28;20194;-77
2022/02/25 01:46:51;;;;;;;13.37;5.13;;;0.10;84.20;;;;;;4999897;28;20200;-77
2022/02/25 01:49:18;;;;;;;11.20;4.37;;;0.00;84.40;;;;;;4994755;28;20185;-77
2022/02/25 01:51:45;;;;;;;7.97;5.73;;;0.00;84.60;;;;;;4999150;28;20752;-77
2022/02/25 01:54:12;;;;;;;10.80;5.53;;;0.00;84.60;;;;;;4999344;28;20663;-77
2022/02/25 01:56:39;;;;;;;4.87;4.50;;;0.00;84.80;;;;;;4995582;28;20186;-76
2022/02/25 01:59:05;;;;;;;6.47;4.43;;;-0.10;85.00;;;;;;5005800;28;20738;-77
2022/02/25 02:01:32;;;;;;;5.10;4.50;;;-0.10;85.20;;;;;;4994119;28;20201;-78
2022/02/25 02:03:57;;;;;;;4.37;4.00;;;-0.20;85.30;;;;;;4993839;28;20571;-76
2022/02/25 02:06:23;;;;;;;5.53;3.90;;;-0.20;85.40;;;;;;4996877;28;20262;-76
2022/02/25 02:08:49;;;;;;;6.97;4.93;;;-0.20;85.20;;;;;;4995906;28;20625;-75
2022/02/25 02:11:29;;;;;;;8.47;4.33;;;-0.20;85.20;;;;;;4995118;28;20181;-75
2022/02/25 02:13:55;;;;;;;8.13;3.97;;;-0.20;85.40;;;;;;4995632;28;20215;-75
2022/02/25 02:16:21;;;;;;;10.77;4.63;;;-0.20;85.40;;;;;;4997585;28;20173;-77
2022/02/25 02:18:47;;;;;;;7.20;4.77;;;-0.20;85.70;;;;;;4994109;28;20200;-77
2022/02/25 02:21:13;;;;;;;5.13;3.73;;;-0.20;85.50;;;;;;4998783;28;20853;-77
2022/02/25 02:23:38;;;;;;;5.50;3.63;;;-0.20;85.60;;;;;;4994914;28;20220;-77
2022/02/25 02:26:04;;;;;;;5.63;3.63;;;-0.30;85.60;;;;;;4990434;28;20177;-77
2022/02/25 02:28:30;;;;;;;4.33;3.47;;;-0.30;85.80;;;;;;4993965;28;20255;-77
2022/02/25 02:30:55;;;;;;;4.80;3.30;;;-0.30;85.70;;;;;;4993302;28;20243;-77
2022/02/25 02:33:21;;;;;;;9.80;3.30;;;-0.30;85.70;;;;;;4995299;28;20200;-77
2022/02/25 02:35:49;;;;;;;4.47;4.07;;;-0.30;85.70;;;;;;4992837;28;20207;-76
2022/02/25 02:38:15;;;;;;;4.33;3.93;;;-0.40;86.10;;;;;;4993654;28;22395;-77
2022/02/25 02:40:41;;;;;;;5.37;4.13;;;-0.30;85.90;;;;;;4991842;28;20857;-76
2022/02/25 02:43:10;;;;;;;5.73;4.07;;;-0.30;85.80;;;;;;4997590;28;20216;-76
2022/02/25 02:45:36;;;;;;;4.20;3.70;;;-0.30;85.80;;;;;;4995715;28;20323;-76
2022/02/25 02:48:03;;;;;;;5.30;3.47;;;-0.40;85.90;;;;;;4995205;28;20181;-76
2022/02/25 02:50:29;;;;;;;13.13;3.93;;;-0.40;86.20;;;;;;4996331;28;20223;-76
2022/02/25 02:52:56;;;;;;;4.00;3.40;;;-0.40;86.30;;;;;;4996263;28;20181;-76
2022/02/25 02:55:22;;;;;;;6.80;3.50;;;-0.40;86.30;;;;;;4992961;28;20209;-77
2022/02/25 02:57:49;;;;;;;9.30;2.77;;;-0.40;86.40;;;;;;4997982;28;20283;-75
2022/02/25 03:00:15;;;;;;;4.60;2.97;;;-0.50;86.40;;;;;;4994447;28;20174;-76
2022/02/25 03:02:41;;;;;;;5.03;3.40;;;-0.50;86.50;;;;;;4996095;28;20772;-76
2022/02/25 03:05:07;;;;;;;4.33;2.87;;;-0.50;86.40;;;;;;4994688;28;20184;-76
2022/02/25 03:07:33;;;;;;;3.07;2.87;;;-0.40;86.30;;;;;;4993102;28;20196;-76
2022/02/25 03:09:59;;;;;;;3.33;3.00;;;-0.50;86.40;;;;;;4995328;28;20243;-77
2022/02/25 03:12:25;;;;;;;3.50;3.20;;;-0.50;86.40;;;;;;4990574;28;20192;-76
2022/02/25 03:14:51;;;;;;;8.77;3.20;;;-0.50;86.50;;;;;;4995770;28;20197;-77
2022/02/25 03:17:16;;;;;;;3.10;2.87;;;-0.50;86.50;;;;;;4993834;28;20184;-77
2022/02/25 03:19:43;;;;;;;3.10;2.57;;;-0.50;86.50;;;;;;4990409;28;20593;-76
2022/02/25 03:22:10;;;;;;;3.53;3.20;;;-0.50;86.60;;;;;;4990171;28;20246;-77
2022/02/25 03:24:36;;;;;;;5.53;2.73;;;-0.50;86.60;;;;;;4994390;28;20603;-77
2022/02/25 03:27:02;;;;;;;3.30;3.10;;;-0.50;86.50;;;;;;4998362;28;20186;-76
2022/02/25 03:29:28;;;;;;;8.03;2.90;;;-0.50;86.60;;;;;;4998227;28;21020;-76
2022/02/25 03:31:54;;;;;;;4.40;3.00;;;-0.60;86.70;;;;;;4996839;28;20196;-76
2022/02/25 03:34:19;;;;;;;4.97;3.60;;;-0.60;86.70;;;;;;4992743;28;20197;-76
2022/02/25 03:36:45;;;;;;;5.30;3.93;;;-0.60;86.80;;;;;;4992524;28;20196;-76
2022/02/25 03:39:11;;;;;;;4.47;4.13;;;-0.60;86.80;;;;;;4996022;28;20264;-76
2022/02/25 03:41:37;;;;;;;5.47;3.70;;;-0.60;86.80;;;;;;4994058;28;20276;-76
2022/02/25 03:44:03;;;;;;;4.37;3.77;;;-0.60;86.80;;;;;;4993718;28;20300;-76
2022/02/25 03:46:28;;;;;;;11.00;3.90;;;-0.70;86.90;;;;;;4996195;28;20258;-76
2022/02/25 03:48:54;;;;;;;4.37;3.77;;;-0.70;86.90;;;;;;5008297;28;20190;-76
2022/02/25 03:51:21;;;;;;;5.90;4.13;;;-0.70;87.00;;;;;;4991487;28;20254;-76
2022/02/25 03:53:48;;;;;;;4.10;3.10;;;-0.70;87.00;;;;;;4998551;28;20698;-76
2022/02/25 03:56:15;;;;;;;4.13;3.77;;;-0.80;87.10;;;;;;4992681;28;20186;-76
2022/02/25 03:58:41;;;;;;;3.63;3.33;;;-0.80;87.10;;;;;;4997467;28;20177;-76
2022/02/25 04:01:07;;;;;;;5.67;2.67;;;-0.80;87.00;;;;;;4995757;28;20196;-76
2022/02/25 04:03:33;;;;;;;5.47;3.60;;;-0.80;87.10;;;;;;4999545;28;20560;-76
2022/02/25 04:05:59;;;;;;;3.57;2.53;;;-0.80;87.20;;;;;;4998742;28;20189;-76
2022/02/25 04:08:25;;;;;;;3.60;3.03;;;-0.80;87.20;;;;;;4995832;28;20663;-75
2022/02/25 04:10:50;;;;;;;7.90;3.50;;;-0.90;87.50;;;;;;4993165;28;20181;-76
2022/02/25 04:13:17;;;;;;;3.30;3.10;;;-0.90;87.70;;;;;;4997097;28;20670;-76
2022/02/25 04:15:43;;;;;;;5.40;4.03;;;-0.90;88.20;;;;;;4996926;28;20184;-77
2022/02/25 04:18:10;;;;;;;5.43;3.37;;;-0.90;88.30;;;;;;4994284;28;20172;-77
2022/02/25 04:20:36;;;;;;;3.43;3.23;;;-0.90;88.30;;;;;;4994018;28;20269;-76
2022/02/25 04:23:02;;;;;;;4.53;3.07;;;-0.90;88.30;;;;;;5001454;28;20733;-76
2022/02/25 04:25:28;;;;;;;1.47;1.37;;;-0.90;88.50;;;;;;4996498;28;20192;-77
2022/02/25 04:27:54;;;;;;;4.07;3.73;;;-0.90;88.60;;;;;;4996159;28;20182;-77
2022/02/25 04:30:20;;;;;;;4.07;2.90;;;-1.00;88.60;;;;;;4994152;28;20607;-77
2022/02/25 04:32:47;;;;;;;5.73;3.53;;;-1.00;88.70;;;;;;4992143;28;20394;-77
2022/02/25 04:35:12;;;;;;;3.63;2.77;;;-1.00;88.90;;;;;;4995878;28;20197;-77
2022/02/25 04:37:38;;;;;;;7.93;3.30;;;-1.00;89.00;;;;;;4998220;28;20934;-77
2022/02/25 04:40:05;;;;;;;2.60;2.30;;;-1.00;89.00;;;;;;4994429;28;20177;-77
2022/02/25 04:42:31;;;;;;;3.97;3.67;;;-1.00;88.90;;;;;;4995122;28;20188;-77
2022/02/25 04:44:57;;;;;;;4.87;4.00;;;-1.00;88.90;;;;;;4993107;28;20583;-77
2022/02/25 04:47:23;;;;;;;3.23;3.00;;;-1.10;89.00;;;;;;4993685;28;20181;-78
2022/02/25 04:49:48;;;;;;;4.03;3.07;;;-1.00;88.90;;;;;;4995810;28;20685;-77
2022/02/25 04:52:14;;;;;;;3.33;3.03;;;-1.10;88.80;;;;;;4999866;28;20322;-77
2022/02/25 04:54:40;;;;;;;4.17;2.93;;;-1.10;88.70;;;;;;4994256;28;20201;-78
2022/02/25 04:57:06;;;;;;;3.90;3.13;;;-1.10;88.60;;;;;;4994580;28;20624;-77
2022/02/25 04:59:31;;;;;;;4.77;3.03;;;-1.20;88.80;;;;;;5000485;28;20188;-77
2022/02/25 05:01:57;;;;;;;5.77;3.27;;;-1.20;88.80;;;;;;4997408;28;20745;-77
2022/02/25 05:04:23;;;;;;;4.83;3.17;;;-1.20;88.80;;;;;;4997032;28;20221;-77
2022/02/25 05:06:48;;;;;;;1.97;1.87;;;-1.20;89.00;;;;;;4993599;28;20962;-77
2022/02/25 05:09:14;;;;;;;4.93;3.70;;;-1.20;89.00;;;;;;4989216;28;20194;-77
2022/02/25 05:11:40;;;;;;;4.17;3.43;;;-1.20;88.90;;;;;;4992138;28;20192;-77
2022/02/25 05:20:14;;;;;;;3.57;2.53;;;-1.10;88.80;;;;;;4995012;28;20738;-77
2022/02/25 05:22:20;;;;;;;7.00;4.10;;;-1.10;88.90;;;;;;4997338;28;20265;-77
2022/02/25 05:24:45;;;;;;;4.43;3.30;;;-1.10;88.90;;;;;;4993092;28;20217;-77
2022/02/25 05:27:11;;;;;;;8.67;3.00;;;-1.10;88.90;;;;;;4993666;28;20185;-77
2022/02/25 05:29:37;;;;;;;5.70;3.60;;;-1.10;88.90;;;;;;4996933;28;20869;-77
2022/02/25 05:32:03;;;;;;;3.53;2.80;;;-1.10;89.00;;;;;;4996218;28;20186;-76
2022/02/25 05:34:28;;;;;;;4.37;3.73;;;-1.00;89.00;;;;;;4992852;28;20189;-77
2022/02/25 05:36:54;;;;;;;7.10;3.83;;;-1.00;89.10;;;;;;4991013;28;20181;-78
2022/02/25 05:39:20;;;;;;;4.73;3.97;;;-1.00;89.10;;;;;;4992704;28;20630;-77
2022/02/25 05:41:45;;;;;;;6.93;4.30;;;-1.00;89.20;;;;;;4997963;28;20186;-75
2022/02/25 05:44:11;;;;;;;3.97;3.43;;;-1.00;89.20;;;;;;4995576;28;20217;-75
2022/02/25 05:46:37;;;;;;;3.33;3.03;;;-0.90;89.10;;;;;;4995018;28;20212;-76
2022/02/25 05:49:03;;;;;;;6.40;3.73;;;-0.90;89.20;;;;;;4994978;28;20236;-77
2022/02/25 05:51:28;;;;;;;11.17;4.10;;;-0.80;89.50;;;;;;4995022;28;20655;-76
2022/02/25 05:53:54;;;;;;;11.63;4.93;;;-0.80;89.50;;;;;;4998273;28;20319;-77
2022/02/25 05:56:20;;;;;;;4.57;3.53;;;-0.80;89.60;;;;;;4994432;28;20680;-77
2022/02/25 05:58:46;;;;;;;6.60;4.17;;;-0.70;89.40;;;;;;4993159;28;20985;-77
2022/02/25 06:01:11;;;;;;;7.97;3.40;;;-0.60;89.40;;;;;;4996522;28;20196;-77
2022/02/25 06:03:37;;;;;;;6.13;2.60;;;-0.60;89.20;;;;;;4993478;28;20781;-77
2022/02/25 06:06:03;;;;;;;6.07;4.23;;;-0.60;89.30;;;;;;4992691;28;20189;-77
2022/02/25 06:08:29;;;;;;;3.40;3.10;;;-0.50;89.20;;;;;;4994507;28;20220;-77
2022/02/25 06:10:54;;;;;;;7.87;3.97;;;-0.40;89.10;;;;;;4992297;28;20697;-78
2022/02/25 06:13:20;;;;;;;7.97;3.73;;;-0.40;89.10;;;;;;4994743;28;20302;-78
2022/02/25 06:15:46;;;;;;;3.67;3.27;;;-0.30;89.10;;;;;;4992588;28;20250;-79
2022/02/25 06:18:12;;;;;;;10.27;5.03;;;-0.20;89.20;;;;;;4991198;28;20184;-76
2022/02/25 06:20:38;;;;;;;4.13;2.93;;;-0.20;89.10;;;;;;5002915;28;20203;-78
2022/02/25 06:23:05;;;;;;;5.10;4.13;;;-0.10;89.10;;;;;;4995340;28;20793;-77
2022/02/25 06:25:31;;;;;;;7.60;4.27;;;0.00;89.10;;;;;;4991800;28;20209;-77
2022/02/25 06:27:57;;;;;;;7.13;3.60;;;0.10;89.00;;;;;;4999847;28;20279;-73
2022/02/25 06:30:23;;;;;;;6.13;4.40;;;0.20;88.70;;;;;;4999614;28;20196;-75
2022/02/25 06:32:48;;;;;;;5.50;4.23;;;0.30;88.60;;;;;;4992903;28;20178;-77
2022/02/25 06:35:14;;;;;;;4.80;4.27;;;0.40;88.30;;;;;;4992408;28;20247;-76
2022/02/25 06:37:40;;;;;;;5.93;4.33;;;0.50;88.00;;;;;;4993076;28;20243;-77
2022/02/25 06:40:08;;;;;;;3.87;3.57;;;0.70;87.80;;;;;;4995581;28;20186;-76
2022/02/25 06:42:34;;;;;;;6.27;4.23;;;0.80;87.70;;;;;;4992311;28;20909;-79
2022/02/25 06:44:59;;;;;;;7.43;4.50;;;0.90;87.10;;;;;;4993170;28;20190;-78
2022/02/25 06:47:25;;;;;;;6.03;4.87;;;0.90;87.00;;;;;;4996951;28;20217;-75
2022/02/25 06:49:51;;;;;;;6.93;4.07;;;1.00;86.80;;;;;;4995411;28;20664;-77
2022/02/25 06:52:16;;;;;;;4.50;4.10;;;1.10;86.60;;;;;;4994661;28;20193;-75
2022/02/25 06:54:42;;;;;;;5.00;4.43;;;1.20;86.60;;;;;;4988255;28;20248;-78
2022/02/25 06:57:08;;;;;;;9.97;5.27;;;1.30;86.50;;;;;;4998996;28;20185;-74
2022/02/25 06:59:34;;;;;;;5.67;4.60;;;1.40;85.60;;;;;;4998471;28;20188;-74
2022/02/25 07:02:00;;;;;;;5.40;4.30;;;1.50;85.70;;;;;;4991177;28;20609;-74
2022/02/25 07:04:25;;;;;;;6.53;3.57;;;1.60;85.50;;;;;;4993856;28;20308;-74
2022/02/25 07:06:54;;;;;;;5.23;4.43;;;1.70;85.30;;;;;;4998682;28;20583;-74
2022/02/25 07:09:20;;;;;;;8.37;5.57;;;1.90;85.20;;;;;;4999533;28;20180;-73
2022/02/25 07:11:46;;;;;;;7.53;5.00;;;2.10;85.10;;;;;;5007905;28;20188;-74
2022/02/25 07:14:12;;;;;;;5.63;5.13;;;2.20;84.80;;;;;;4997485;28;20185;-73
2022/02/25 07:16:37;;;;;;;8.73;5.10;;;2.40;84.50;;;;;;4995893;28;20713;-74
2022/02/25 07:19:04;;;;;;;5.87;4.83;;;2.50;84.20;;;;;;4994620;28;20774;-72
2022/02/25 07:21:29;;;;;;;17.90;4.43;;;2.70;83.70;;;;;;4993925;28;20177;-74
2022/02/25 07:23:55;;;;;;;4.77;4.30;;;2.80;83.30;;;;;;4993467;28;20231;-74
2022/02/25 07:26:21;;;;;;;6.43;4.37;;;2.90;82.90;;;;;;4996578;28;20178;-74
2022/02/25 07:28:47;;;;;;;4.23;3.93;;;3.10;82.30;;;;;;4996727;28;20189;-72
2022/02/25 07:31:12;;;;;;;7.67;4.17;;;3.20;81.80;;;;;;4995433;28;20264;-73
2022/02/25 07:33:38;;;;;;;6.50;4.37;;;3.30;81.90;;;;;;4997325;28;20185;-73
2022/02/25 07:36:04;;;;;;;4.07;3.67;;;3.50;82.10;;;;;;4997696;28;20194;-73
2022/02/25 07:38:30;;;;;;;7.40;4.93;;;3.70;81.50;;;;;;4996508;28;20185;-73
2022/02/25 07:40:55;;;;;;;9.57;4.57;;;3.90;80.40;;;;;;5001212;28;20173;-73
2022/02/25 07:43:22;;;;;;;9.23;4.80;;;4.30;79.80;;;;;;4998873;28;20220;-73
2022/02/25 07:45:52;;;;;;;7.63;4.63;;;4.70;79.80;;;;;;4999464;28;20196;-73
2022/02/25 07:48:19;;;;;;;5.57;5.00;;;5.20;79.20;;;;;;4988657;28;20188;-73
2022/02/25 07:50:45;;;;;;;6.03;4.47;;;5.80;78.80;;;;;;4997218;28;20570;-73
2022/02/25 07:53:12;;;;;;;5.53;4.93;;;6.50;78.00;;;;;;5001214;28;20332;-74
2022/02/25 07:55:38;;;;;;;5.53;4.80;;;7.40;77.80;;;;;;5000207;28;20300;-74
2022/02/25 07:58:04;;;;;;;9.73;3.77;;;8.40;74.70;;;;;;5003609;28;20185;-73
2022/02/25 08:00:30;;;;;;;7.77;4.77;;;9.40;71.30;;;;;;4996919;28;20185;-73
2022/02/25 08:02:56;;;;;;;7.60;4.90;;;10.30;70.10;;;;;;5001983;28;20205;-74
2022/02/25 08:05:23;;;;;;;7.27;5.83;;;10.90;65.60;;;;;;4998922;28;20181;-74
2022/02/25 08:07:49;;;;;;;5.57;5.07;;;11.50;66.90;;;;;;4997070;28;20188;-74
2022/02/25 08:10:15;;;;;;;7.03;5.43;;;12.20;64.20;;;;;;4993025;28;20257;-74
2022/02/25 08:12:42;;;;;;;11.77;6.40;;;12.60;61.80;;;;;;5002111;28;20340;-73
2022/02/25 08:15:09;;;;;;;5.75;5.25;;;13.10;60.80;;;;;;5001037;28;20196;-73
2022/02/25 08:17:36;;;;;;;13.40;7.10;;;13.50;59.60;;;;;;4994758;28;20327;-73
2022/02/25 08:20:04;;;;;;;7.10;6.20;;;14.00;59.60;;;;;;4992900;28;20182;-73
2022/02/25 08:22:30;;;;;;;12.00;6.15;;;14.50;58.70;;;;;;4998397;28;20192;-73
2022/02/25 08:24:56;;;;;;;10.52;5.88;;;14.90;57.20;;;;;;4990677;28;20209;-73
2022/02/25 08:27:22;;;;;;;11.15;6.53;;;15.10;56.10;;;;;;4997130;28;20235;-73
2022/02/25 08:29:48;;;;;;;8.15;7.18;;;15.50;56.70;;;;;;4993158;28;20178;-74
2022/02/25 08:32:14;;;;;;;9.30;7.35;;;16.00;56.20;;;;;;4995709;28;20997;-74
2022/02/25 08:34:40;;;;;;;9.80;7.25;;;16.50;54.20;;;;;;4995130;28;20192;-73
2022/02/25 08:37:06;;;;;;;12.45;7.30;;;16.70;53.70;;;;;;4997442;28;20212;-75
2022/02/25 08:39:32;;;;;;;7.22;6.40;;;16.80;53.10;;;;;;4988624;28;20181;-74
2022/02/25 08:41:58;;;;;;;8.77;6.88;;;17.10;52.90;;;;;;4993598;28;20185;-75
2022/02/25 08:44:24;;;;;;;8.70;6.28;;;17.30;52.00;;;;;;4992010;28;20245;-73
2022/02/25 08:46:50;;;;;;;8.02;5.72;;;17.40;51.80;;;;;;4994315;28;20197;-74
2022/02/25 08:49:17;;;;;;;7.68;5.47;;;17.50;51.00;;;;;;4997615;28;20177;-74
2022/02/25 08:51:43;;;;;;;9.50;6.50;;;17.50;50.70;;;;;;4989929;28;20246;-73
2022/02/25 08:54:13;;;;;;;6.97;6.32;;;17.90;52.20;;;;;;4987863;28;20216;-72
2022/02/25 08:56:39;;;;;;;6.88;6.15;;;18.50;51.50;;;;;;4988308;28;20186;-73
2022/02/25 08:59:05;;;;;;;6.70;6.00;;;19.00;51.40;;;;;;4996584;28;20188;-73
2022/02/25 09:01:32;;;;;;;7.78;5.60;;;19.60;51.80;;;;;;4995591;28;20188;-74
2022/02/25 09:04:01;;;;;;;8.18;6.38;;;20.20;49.20;;;;;;4991486;28;20212;-74
2022/02/25 09:06:29;;;;;;;10.20;6.75;;;20.90;48.70;;;;;;4993303;28;20264;-73
2022/02/25 09:08:56;;;;;;;8.73;6.15;;;21.10;47.60;;;;;;4992418;28;20181;-74
2022/02/25 09:11:22;;;;;;;6.70;6.05;;;21.10;47.60;;;;;;4991726;28;20248;-73
2022/02/25 09:13:51;;;;;;;7.43;5.95;;;21.40;48.20;;;;;;4993346;28;20212;-73
2022/02/25 09:16:17;;;;;;;10.23;6.07;;;21.90;48.20;;;;;;4993597;28;20185;-74
2022/02/25 09:18:43;;;;;;;8.15;6.57;;;22.40;47.40;;;;;;4995233;28;20199;-74
2022/02/25 09:21:09;;;;;;;13.27;6.75;;;22.70;45.30;;;;;;4989956;28;20208;-74
2022/02/25 09:23:35;;;;;;;9.80;6.88;;;23.10;45.90;;;;;;4995845;28;20209;-74
2022/02/25 09:26:00;;;;;;;10.38;7.88;;;23.60;46.10;;;;;;4988558;28;20668;-73
2022/02/25 09:28:26;;;;;;;13.05;7.70;;;24.10;45.80;;;;;;4993385;28;20188;-74
2022/02/25 09:30:53;;;;;;;11.18;8.02;;;24.40;45.00;;;;;;4990987;28;20276;-74
2022/02/25 09:33:19;;;;;;;8.73;7.78;;;24.80;44.70;;;;;;4987737;28;20189;-74
2022/02/25 09:35:45;;;;;;;12.98;8.38;;;25.00;44.80;;;;;;4990761;28;20303;-74
2022/02/25 09:38:11;;;;;;;9.93;8.82;;;25.40;44.90;;;;;;4989717;28;20231;-74
2022/02/25 09:40:38;;;;;;;13.40;8.52;;;25.70;42.90;;;;;;4995804;28;20190;-74
2022/02/25 09:43:05;;;;;;;10.88;8.88;;;25.90;43.60;;;;;;4990953;28;20210;-74
2022/02/25 09:45:32;;;;;;;13.95;9.20;;;26.20;44.30;;;;;;4991844;28;20263;-74
2022/02/25 09:47:57;;;;;;;10.02;8.35;;;26.50;44.20;;;;;;4990192;28;20221;-74
2022/02/25 09:50:25;;;;;;;14.00;9.00;;;26.70;42.70;;;;;;4994491;28;20942;-74
2022/02/25 09:52:52;;;;;;;12.40;9.88;;;26.70;42.80;;;;;;4996348;28;20185;-74
2022/02/25 09:55:25;;;;;;;16.35;10.20;;;26.50;41.50;;;;;;4995924;28;20182;-74
2022/02/25 09:57:54;;;;;;;17.30;11.13;;;26.40;41.20;;;;;;4989725;28;20204;-74
2022/02/25 10:00:21;;;;;;;13.82;10.35;;;25.80;42.60;;;;;;4994789;28;20177;-74
2022/02/25 10:02:49;;;;;;;16.73;10.27;;;25.70;43.40;;;;;;4989728;28;20192;-73
2022/02/25 10:05:21;;;;;;;12.60;10.57;;;25.90;43.90;;;;;;4988115;28;20184;-73
2022/02/25 10:07:47;;;;;;;17.08;11.38;;;25.70;42.20;;;;;;4993846;28;20191;-73
2022/02/25 10:10:15;;;;;;;15.77;10.77;;;25.50;43.20;;;;;;4995948;28;20178;-74
2022/02/25 10:12:55;;;;;;;14.35;9.45;;;25.60;43.10;;;;;;4995443;28;20173;-74
2022/02/25 10:15:32;;;;;;;19.50;10.52;;;25.60;42.30;;;;;;4994720;28;20181;-73
2022/02/25 10:18:03;;;;;;;16.05;9.63;;;25.70;41.10;;;;;;4993352;28;20178;-74
2022/02/25 10:20:29;;;;;;;10.25;8.27;;;25.60;42.70;;;;;;4988287;28;20265;-74
2022/02/25 10:22:57;;;;;;;10.63;8.07;;;25.80;42.60;;;;;;4996655;28;20196;-74
2022/02/25 10:25:25;;;;;;;10.55;7.63;;;26.00;41.80;;;;;;4989894;28;20188;-74
2022/02/25 10:27:51;;;;;;;13.20;9.50;;;26.10;41.10;;;;;;4998039;28;20181;-75
2022/02/25 10:30:22;;;;;;;10.32;9.23;;;26.00;40.50;;;;;;4992780;28;20189;-74
2022/02/25 10:32:49;;;;;;;14.68;8.00;;;25.80;42.50;;;;;;4992114;28;20691;-75
2022/02/25 10:35:27;;;;;;;14.23;8.68;;;26.10;41.50;;;;;;4993507;28;20579;-74
2022/02/25 10:38:17;;;;;;;10.65;7.68;;;26.40;42.00;;;;;;4991970;28;21664;-74
2022/02/25 10:40:50;;;;;;;8.27;6.57;;;26.70;40.10;;;;;;4997066;28;20188;-74
2022/02/25 10:43:22;;;;;;;11.35;7.07;;;27.00;40.00;;;;;;4990637;28;20626;-74
2022/02/25 10:45:53;;;;;;;11.98;7.38;;;27.40;40.10;;;;;;4995029;28;20189;-75
2022/02/25 10:48:26;;;;;;;8.00;7.25;;;27.70;39.30;;;;;;4986411;28;20951;-74
2022/02/25 10:50:56;;;;;;;12.32;7.45;;;27.80;40.70;;;;;;4997922;28;20189;-74
2022/02/25 10:53:47;;;;;;;11.68;7.25;;;27.60;38.80;;;;;;4982628;28;20181;-73
2022/02/25 10:56:16;;;;;;;8.35;7.25;;;27.20;40.20;;;;;;4981104;28;20243;-73
2022/02/25 10:58:47;;;;;;;18.25;6.82;;;27.00;41.10;;;;;;4990295;28;20764;-73
2022/02/25 11:01:14;;;;;;;6.43;5.80;;;27.20;41.20;;;;;;4994247;28;20216;-73
2022/02/25 11:03:42;;;;;;;8.80;5.82;;;27.50;40.90;;;;;;4985740;28;20205;-73
2022/02/25 11:06:11;;;;;;;9.25;6.13;;;27.70;40.20;;;;;;4984824;28;20170;-74
2022/02/25 11:08:39;;;;;;;6.80;5.88;;;27.90;39.40;;;;;;4992537;28;20177;-75
2022/02/25 11:11:06;;;;;;;6.43;5.47;;;28.20;39.90;;;;;;4985243;28;20216;-73
2022/02/25 11:13:32;;;;;;;6.20;5.70;;;28.20;39.40;;;;;;4995992;28;20204;-73
2022/02/25 11:16:00;;;;;;;10.50;5.90;;;28.20;39.10;;;;;;4986279;28;20197;-73
2022/02/25 11:18:26;;;;;;;7.88;6.18;;;28.20;40.00;;;;;;4992383;28;20193;-73
2022/02/25 11:20:53;;;;;;;7.90;5.47;;;28.10;39.20;;;;;;4989610;28;20192;-73
2022/02/25 11:23:20;;;;;;;6.60;5.80;;;28.00;39.00;;;;;;4987180;28;20719;-73
2022/02/25 11:25:48;;;;;;;6.20;5.60;;;27.80;38.60;;;;;;4990089;28;20187;-73
2022/02/25 11:28:15;;;;;;;5.80;5.28;;;27.70;36.70;;;;;;4984405;28;20185;-74
2022/02/25 11:31:03;;;;;;;5.15;4.75;;;27.40;38.70;;;;;;4985338;28;20561;-73
2022/02/25 11:33:30;;;;;;;6.22;4.65;;;26.90;37.70;;;;;;4989144;28;20220;-73
2022/02/25 11:36:02;;;;;;;11.02;5.38;;;26.60;36.70;;;;;;4986445;28;20221;-73
2022/02/25 11:38:45;;;;;;;7.10;4.18;;;26.20;38.00;;;;;;4989641;28;21104;-73
2022/02/25 11:41:18;;;;;;;7.25;4.60;;;25.90;36.20;;;;;;4985502;28;20173;-74
2022/02/25 11:43:52;;;;;;;6.10;5.30;;;25.60;38.30;;;;;;4991878;28;20216;-74
2022/02/25 11:46:27;;;;;;;4.70;4.20;;;25.20;37.40;;;;;;4987566;28;20202;-74
2022/02/25 11:49:12;;;;;;;4.82;4.50;;;25.00;36.70;;;;;;4987336;28;20651;-74
2022/02/25 11:51:40;;;;;;;5.45;4.95;;;24.60;38.70;;;;;;4990901;28;20192;-74
2022/02/25 11:54:18;;;;;;;4.57;3.97;;;24.30;38.80;;;;;;4987037;28;20181;-73
2022/02/25 11:56:45;;;;;;;4.28;3.97;;;23.80;37.80;;;;;;4990665;28;20181;-73
2022/02/25 11:59:11;;;;;;;4.07;3.80;;;23.60;40.60;;;;;;4992215;28;20250;-72
2022/02/25 12:02:16;;;;;;;4.35;3.95;;;23.80;39.70;;;;;;4993119;28;20213;-73
2022/02/25 12:04:47;;;;;;;4.28;4.03;;;24.30;39.30;;;;;;4991690;28;20205;-73
2022/02/25 12:07:15;;;;;;;3.90;3.60;;;24.90;36.70;;;;;;4989107;28;20213;-73
2022/02/25 12:10:13;;;;;;;5.45;3.42;;;24.90;36.70;;;;;;4992673;28;20267;-73
2022/02/25 12:12:40;;;;;;;4.40;3.90;;;25.00;37.50;;;;;;4994222;28;20372;-74
2022/02/25 12:15:21;;;;;;;4.03;3.65;;;25.30;37.80;;;;;;4993901;28;20189;-74
2022/02/25 12:17:56;;;;;;;5.85;4.32;;;25.50;37.50;;;;;;4996534;28;20188;-73
2022/02/25 12:20:23;;;;;;;4.50;3.50;;;25.70;37.10;;;;;;4990950;28;20280;-73
2022/02/25 12:23:02;;;;;;;4.20;3.70;;;25.60;37.70;;;;;;4995586;28;20201;-73
2022/02/25 12:25:40;;;;;;;3.83;3.45;;;25.60;38.90;;;;;;4988601;28;20667;-73
2022/02/25 12:28:27;;;;;;;6.53;3.38;;;26.00;37.60;;;;;;4993437;28;20215;-74
2022/02/25 12:31:03;;;;;;;3.92;3.63;;;26.50;36.50;;;;;;4988251;28;20201;-72
2022/02/25 12:33:44;;;;;;;3.33;3.13;;;26.90;37.20;;;;;;4986412;28;20182;-74
2022/02/25 12:36:12;;;;;;;3.78;3.55;;;27.10;36.00;;;;;;4987439;28;20181;-74
2022/02/25 12:38:47;;;;;;;3.58;3.38;;;27.00;35.60;;;;;;4994749;28;20189;-74
2022/02/25 12:41:21;;;;;;;4.07;3.63;;;26.80;36.90;;;;;;4990731;28;20616;-74
2022/02/25 12:43:49;;;;;;;3.85;3.65;;;26.80;36.50;;;;;;4993125;28;20786;-74
2022/02/25 12:46:17;;;;;;;4.68;4.10;;;26.90;36.90;;;;;;4986440;28;20650;-75
2022/02/25 12:48:43;;;;;;;5.00;3.53;;;27.10;36.40;;;;;;4995514;28;20189;-74
2022/02/25 12:51:08;;;;;;;5.38;3.53;;;27.20;36.00;;;;;;4985446;28;20184;-74
2022/02/25 12:53:52;;;;;;;3.38;3.20;;;27.20;35.10;;;;;;4989598;28;20185;-73
2022/02/25 12:56:20;;;;;;;4.00;3.60;;;27.10;35.70;;;;;;4991756;28;20396;-74